Time;durP1;ratioP1;P1;durP2;ratioP2;P2;SDS_P1;SDS_P2;PMS_P1;PMS_P2;Temp;Humidity;BMP_temperature;BMP_pressure;BME280_temperature;BME280_humidity;BME280_pressure;Samples;Min_cycle;Max_cycle;Signal;HPM_P1;HPM_P2
2023/07/15 00:00:14;;;;;;;11.47;8.47;;;;;;;28.76;64.41;99500.09;4957303;29;20195;-70
2023/07/15 00:02:44;;;;;;;8.27;7.57;;;;;;;28.71;65.09;99508.41;4957306;29;20705;-70
2023/07/15 00:05:20;;;;;;;8.93;8.03;;;;;;;28.46;66.25;99511.81;4958010;28;20282;-70
2023/07/15 00:07:48;;;;;;;9.53;8.60;;;;;;;28.33;67.22;99501.75;4976645;28;20234;-70
2023/07/15 00:10:15;;;;;;;17.17;8.47;;;;;;;28.42;67.17;99504.56;4976199;28;20233;-70
2023/07/15 00:12:42;;;;;;;13.93;9.07;;;;;;;28.52;67.06;99509.78;4976261;28;20659;-70
2023/07/15 00:15:13;;;;;;;10.17;9.00;;;;;;;28.56;67.31;99510.75;4976453;28;20199;-70
2023/07/15 00:17:39;;;;;;;10.57;9.57;;;;;;;28.59;67.87;99502.72;4976102;28;20199;-71
2023/07/15 00:20:08;;;;;;;11.87;9.43;;;;;;;28.65;67.60;99517.06;4976190;28;20202;-70
2023/07/15 00:22:35;;;;;;;10.53;8.43;;;;;;;28.60;67.21;99514.47;4975991;28;20227;-70
2023/07/15 00:25:05;;;;;;;9.93;8.70;;;;;;;28.61;66.94;99524.28;4975899;28;20573;-70
2023/07/15 00:27:31;;;;;;;8.70;7.07;;;;;;;28.60;63.78;99528.16;4976384;28;20195;-70
2023/07/15 00:29:59;;;;;;;8.43;7.60;;;;;;;28.59;64.02;99526.53;4975688;28;20253;-70
2023/07/15 00:32:27;;;;;;;8.13;6.93;;;;;;;28.45;63.90;99536.72;4976030;28;20223;-70
2023/07/15 00:34:54;;;;;;;7.00;6.20;;;;;;;28.14;63.76;99524.91;4975489;28;20626;-70
2023/07/15 00:37:21;;;;;;;5.90;5.33;;;;;;;28.18;63.18;99525.91;4975871;28;20632;-70
2023/07/15 00:39:47;;;;;;;6.83;5.13;;;;;;;28.08;63.07;99532.41;4975939;28;20234;-70
2023/07/15 00:42:19;;;;;;;10.87;5.53;;;;;;;28.14;62.77;99525.69;4975967;28;20234;-70
2023/07/15 00:44:45;;;;;;;6.23;5.63;;;;;;;28.15;62.23;99529.25;4975732;28;20188;-70
2023/07/15 00:47:26;;;;;;;7.10;5.87;;;;;;;28.11;61.84;99531.00;4975547;28;20557;-70
2023/07/15 00:49:53;;;;;;;5.80;5.27;;;;;;;28.05;62.18;99537.72;4975440;28;20184;-70
2023/07/15 00:52:21;;;;;;;7.87;5.63;;;;;;;28.06;61.75;99533.84;4975811;28;20207;-70
2023/07/15 00:54:52;;;;;;;5.37;4.70;;;;;;;27.80;62.21;99524.56;4975429;28;20197;-70
2023/07/15 00:57:20;;;;;;;10.43;5.13;;;;;;;27.94;61.94;99531.69;4975635;28;20199;-70
2023/07/15 00:59:48;;;;;;;5.00;4.60;;;;;;;27.89;61.77;99528.25;4975131;28;20198;-70
2023/07/15 01:02:16;;;;;;;5.73;5.23;;;;;;;27.87;61.63;99525.81;4974681;28;20223;-70
2023/07/15 01:04:45;;;;;;;5.67;5.37;;;;;;;27.90;61.15;99536.13;4975299;28;20684;-70
2023/07/15 01:07:12;;;;;;;6.47;5.67;;;;;;;27.93;61.22;99532.75;4958273;28;20226;-70
2023/07/15 01:09:40;;;;;;;7.73;5.50;;;;;;;27.68;61.18;99532.53;4955832;29;20645;-70
2023/07/15 01:12:08;;;;;;;8.17;6.17;;;;;;;27.56;61.47;99529.50;4955974;29;20210;-70
2023/07/15 01:14:34;;;;;;;5.80;5.27;;;;;;;27.65;61.07;99539.38;4955654;29;20554;-70
2023/07/15 01:17:01;;;;;;;5.53;5.03;;;;;;;27.62;60.72;99534.56;4955766;29;20191;-70
2023/07/15 01:19:28;;;;;;;6.53;4.53;;;;;;;27.40;60.39;99541.84;4955938;29;20204;-70
2023/07/15 01:21:56;;;;;;;9.20;4.13;;;;;;;26.90;61.88;99542.81;4955690;29;20263;-70
2023/07/15 01:24:25;;;;;;;4.57;4.17;;;;;;;27.10;61.10;99536.97;4955853;29;20278;-70
2023/07/15 01:26:56;;;;;;;4.50;4.10;;;;;;;26.92;61.51;99535.13;4955611;29;20235;-70
2023/07/15 01:29:23;;;;;;;5.43;4.27;;;;;;;27.06;61.17;99535.94;4955416;29;20770;-70
2023/07/15 01:31:50;;;;;;;6.03;4.27;;;;;;;26.90;61.35;99537.38;4955645;29;20263;-70
2023/07/15 01:34:19;;;;;;;4.80;4.40;;;;;;;27.07;60.90;99543.03;4955194;29;20735;-70
2023/07/15 01:36:46;;;;;;;6.77;4.47;;;;;;;27.09;60.80;99541.63;4955554;29;20568;-70
2023/07/15 01:39:12;;;;;;;5.47;4.30;;;;;;;27.17;60.56;99545.56;4955209;29;20192;-70
2023/07/15 01:41:40;;;;;;;7.33;4.50;;;;;;;27.15;60.31;99545.06;4955410;29;20200;-70
2023/07/15 01:44:07;;;;;;;7.60;4.27;;;;;;;26.85;61.35;99538.25;4955083;29;20259;-70
2023/07/15 01:46:38;;;;;;;4.83;4.50;;;;;;;26.84;61.98;99544.00;4955257;29;20259;-70
2023/07/15 01:49:05;;;;;;;5.53;4.07;;;;;;;26.94;61.07;99538.34;4955241;29;20230;-70
2023/07/15 01:51:31;;;;;;;6.60;4.13;;;;;;;27.04;61.11;99543.63;4954730;29;20196;-70
2023/07/15 01:53:58;;;;;;;4.20;3.90;;;;;;;26.98;60.85;99540.19;4954894;29;20200;-70
2023/07/15 01:56:25;;;;;;;4.50;4.10;;;;;;;27.00;60.84;99542.63;4954950;29;20570;-70
2023/07/15 01:58:53;;;;;;;4.93;3.80;;;;;;;26.93;60.48;99537.56;4955322;29;20196;-70
2023/07/15 02:01:20;;;;;;;4.43;4.13;;;;;;;27.06;60.47;99544.94;4954953;29;20200;-70
2023/07/15 02:03:46;;;;;;;8.03;3.80;;;;;;;27.13;60.00;99550.00;4954900;29;20263;-70
2023/07/15 02:06:14;;;;;;;3.93;3.50;;;;;;;27.17;59.62;99553.75;4963592;28;20738;-70
2023/07/15 02:08:41;;;;;;;4.77;4.17;;;;;;;27.13;59.70;99552.72;4974047;28;20195;-69
2023/07/15 02:11:08;;;;;;;6.70;4.03;;;;;;;27.13;59.20;99558.19;4974221;28;20195;-70
2023/07/15 02:13:35;;;;;;;5.40;3.40;;;;;;;27.10;59.72;99559.59;4973181;28;20199;-70
2023/07/15 02:16:03;;;;;;;3.60;3.30;;;;;;;27.09;59.72;99557.16;4974063;28;20196;-70
2023/07/15 02:18:30;;;;;;;6.63;3.33;;;;;;;27.05;59.29;99556.97;4973851;28;20254;-70
2023/07/15 02:20:56;;;;;;;5.40;3.80;;;;;;;26.98;59.95;99561.19;4973830;28;20199;-70
2023/07/15 02:23:23;;;;;;;4.00;3.70;;;;;;;26.85;60.12;99561.97;4973706;28;20223;-70
2023/07/15 02:25:50;;;;;;;7.50;3.67;;;;;;;26.91;60.05;99572.50;4973565;28;20226;-70
2023/07/15 02:28:16;;;;;;;3.97;3.67;;;;;;;26.97;60.07;99570.47;4973948;28;20199;-70
2023/07/15 02:30:43;;;;;;;3.63;3.17;;;;;;;26.97;59.82;99567.75;4974109;28;20259;-70
2023/07/15 02:33:11;;;;;;;7.37;3.80;;;;;;;26.67;61.33;99560.13;4973607;28;20210;-70
2023/07/15 02:35:46;;;;;;;4.20;3.80;;;;;;;26.84;60.91;99563.09;5109439;27;20539;-69
2023/07/15 02:38:13;;;;;;;9.77;3.90;;;;;;;26.95;60.81;99562.59;5109614;28;20190;-69
2023/07/15 02:40:39;;;;;;;4.70;4.30;;;;;;;27.05;60.23;99567.06;5109407;28;20697;-69
2023/07/15 02:43:06;;;;;;;4.37;3.87;;;;;;;26.97;60.47;99570.47;5109636;28;20191;-69
2023/07/15 02:45:33;;;;;;;6.60;3.97;;;;;;;26.91;60.52;99574.44;5109332;28;20198;-69
2023/07/15 02:48:00;;;;;;;4.43;4.03;;;;;;;26.96;60.52;99574.31;5109533;28;20190;-69
2023/07/15 02:50:27;;;;;;;6.33;4.03;;;;;;;26.78;61.09;99573.28;5109483;28;20253;-69
2023/07/15 02:52:55;;;;;;;8.93;4.23;;;;;;;26.95;61.00;99580.91;5109639;28;20344;-72
2023/07/15 02:55:21;;;;;;;4.77;4.23;;;;;;;26.96;60.84;99577.88;5109197;28;20279;-70
2023/07/15 02:57:48;;;;;;;4.43;3.53;;;;;;;27.07;60.78;99586.69;5109557;28;20202;-70
2023/07/15 03:00:15;;;;;;;5.97;4.37;;;;;;;27.12;60.54;99578.38;5109001;28;20190;-70
2023/07/15 03:02:47;;;;;;;4.87;4.27;;;;;;;27.15;60.59;99585.97;5109240;28;20190;-70
2023/07/15 03:05:14;;;;;;;4.70;4.03;;;;;;;27.15;60.28;99588.72;5109241;28;20277;-70
2023/07/15 03:07:43;;;;;;;6.17;4.20;;;;;;;26.69;62.09;99585.97;5108811;28;20658;-70
2023/07/15 03:10:12;;;;;;;4.60;4.30;;;;;;;26.74;61.51;99587.81;5109176;28;20222;-70
2023/07/15 03:12:39;;;;;;;4.77;4.30;;;;;;;26.86;61.32;99590.88;5108840;28;20251;-70
2023/07/15 03:15:07;;;;;;;4.23;3.87;;;;;;;26.92;61.19;99595.94;5108806;28;20218;-70
2023/07/15 03:17:35;;;;;;;4.70;4.17;;;;;;;27.00;60.79;99597.16;5109141;28;20670;-70
2023/07/15 03:20:06;;;;;;;4.43;4.03;;;;;;;26.88;61.20;99596.84;5108383;28;20736;-70
2023/07/15 03:22:32;;;;;;;4.67;4.27;;;;;;;27.06;60.56;99598.69;5108592;28;20281;-70
2023/07/15 03:24:59;;;;;;;4.97;4.53;;;;;;;27.14;60.45;99598.81;5108891;28;20255;-70
2023/07/15 03:27:27;;;;;;;6.93;4.10;;;;;;;27.24;60.35;99598.63;5108625;28;20191;-70
2023/07/15 03:29:54;;;;;;;6.60;4.00;;;;;;;27.32;59.83;99588.94;5108379;28;20201;-70
2023/07/15 03:32:22;;;;;;;5.13;4.57;;;;;;;27.39;59.53;99590.16;5108092;28;20226;-70
2023/07/15 03:34:49;;;;;;;4.47;4.17;;;;;;;27.32;60.00;99594.41;5108058;28;20237;-70
2023/07/15 03:37:16;;;;;;;4.93;4.43;;;;;;;27.42;59.35;99605.09;5108449;28;20252;-70
2023/07/15 03:39:42;;;;;;;4.93;4.33;;;;;;;27.30;59.14;99588.44;5107995;28;20191;-70
2023/07/15 03:42:09;;;;;;;4.90;4.43;;;;;;;27.44;58.96;99603.69;5108183;28;20738;-70
2023/07/15 03:44:37;;;;;;;4.57;4.10;;;;;;;27.34;58.86;99603.91;5108377;28;20622;-70
2023/07/15 03:47:04;;;;;;;6.97;3.97;;;;;;;27.43;58.67;99601.25;5095091;28;20199;-70
2023/07/15 03:49:31;;;;;;;4.20;3.80;;;;;;;27.48;58.42;99604.69;5094909;28;20191;-70
2023/07/15 03:51:58;;;;;;;6.97;4.27;;;;;;;27.41;58.34;99606.22;5094758;28;20187;-70
2023/07/15 03:54:25;;;;;;;6.50;3.90;;;;;;;27.46;58.28;99606.13;5094482;28;20258;-72
2023/07/15 03:56:52;;;;;;;4.50;3.80;;;;;;;27.53;58.07;99606.53;5094014;28;20191;-69
2023/07/15 03:59:19;;;;;;;6.47;3.87;;;;;;;27.47;58.48;99610.47;5094085;28;20338;-70
2023/07/15 04:01:47;;;;;;;5.97;4.07;;;;;;;27.43;58.27;99612.19;5094342;28;20196;-72
2023/07/15 04:04:14;;;;;;;5.33;3.77;;;;;;;27.64;57.76;99618.88;5094159;28;20667;-72
2023/07/15 04:06:41;;;;;;;5.83;3.60;;;;;;;27.79;56.77;99622.09;5094169;28;20196;-72
2023/07/15 04:09:11;;;;;;;5.73;3.70;;;;;;;27.72;57.02;99626.34;5094139;28;20682;-72
2023/07/15 04:11:38;;;;;;;3.63;3.27;;;;;;;27.94;56.46;99618.25;5094564;28;20183;-70
2023/07/15 04:14:04;;;;;;;5.27;3.53;;;;;;;28.10;56.01;99619.53;5094193;28;20187;-70
2023/07/15 04:16:31;;;;;;;5.03;3.80;;;;;;;28.72;54.84;99624.09;5094356;28;20241;-70
2023/07/15 04:18:59;;;;;;;3.97;3.63;;;;;;;29.22;52.01;99633.75;5093997;28;20248;-70
2023/07/15 04:21:26;;;;;;;4.77;3.30;;;;;;;29.38;51.90;99636.88;5093927;28;20226;-70
2023/07/15 04:23:53;;;;;;;5.77;3.93;;;;;;;29.14;52.39;99629.03;5093719;28;20194;-70
2023/07/15 04:26:23;;;;;;;4.47;3.47;;;;;;;29.07;52.31;99631.41;5093555;28;20223;-70
2023/07/15 04:28:50;;;;;;;5.87;3.43;;;;;;;29.07;52.67;99636.88;5093941;28;20256;-69
2023/07/15 04:31:17;;;;;;;6.10;3.90;;;;;;;29.10;52.00;99639.00;5093624;28;20666;-69
2023/07/15 04:33:44;;;;;;;6.77;3.47;;;;;;;28.98;51.93;99636.00;5093717;28;20223;-70
2023/07/15 04:36:12;;;;;;;7.20;3.70;;;;;;;28.88;53.59;99642.53;5093797;28;20207;-70
2023/07/15 04:38:39;;;;;;;8.83;3.60;;;;;;;29.36;51.79;99642.69;5093824;28;20187;-69
2023/07/15 04:41:05;;;;;;;4.17;3.43;;;;;;;29.80;50.77;99644.50;5093401;28;20248;-70
2023/07/15 04:43:32;;;;;;;4.43;3.50;;;;;;;30.44;49.19;99660.09;5093315;28;20662;-70
2023/07/15 04:46:00;;;;;;;5.87;3.70;;;;;;;30.55;47.87;99659.47;5093164;28;20674;-70
2023/07/15 04:48:27;;;;;;;7.10;3.63;;;;;;;30.56;47.29;99665.72;5093005;28;20237;-70
2023/07/15 04:50:54;;;;;;;4.30;3.43;;;;;;;30.06;48.65;99670.81;5093285;28;20259;-70
2023/07/15 04:53:22;;;;;;;5.60;4.13;;;;;;;29.79;49.09;99657.38;5093408;28;20222;-70
2023/07/15 04:55:49;;;;;;;4.67;3.80;;;;;;;29.55;50.35;99654.19;5093670;28;20219;-70
2023/07/15 04:58:18;;;;;;;8.30;7.27;;;;;;;29.56;50.85;99661.25;5092106;28;20202;-70
2023/07/15 05:00:45;;;;;;;12.40;6.43;;;;;;;30.28;49.47;99662.50;5093216;28;20200;-70
2023/07/15 05:03:12;;;;;;;4.10;3.80;;;;;;;31.09;47.16;99667.00;5093033;28;20192;-69
2023/07/15 05:05:39;;;;;;;7.67;6.00;;;;;;;31.27;45.90;99671.34;5092772;28;20195;-70
2023/07/15 05:08:12;;;;;;;13.00;10.97;;;;;;;31.55;45.26;99667.03;5092630;28;20222;-69
2023/07/15 05:10:40;;;;;;;6.70;4.03;;;;;;;32.32;43.50;99674.91;5093122;28;20180;-70
2023/07/15 05:13:07;;;;;;;5.37;3.87;;;;;;;32.55;42.50;99682.50;5092500;28;20655;-69
2023/07/15 05:15:34;;;;;;;8.00;3.97;;;;;;;32.70;42.36;99681.06;5092785;28;20223;-69
2023/07/15 05:18:01;;;;;;;5.90;5.10;;;;;;;33.67;40.20;99679.47;5092679;28;20750;-70
2023/07/15 05:20:28;;;;;;;6.87;4.73;;;;;;;34.10;38.79;99682.47;5092528;28;20214;-70
2023/07/15 05:22:55;;;;;;;8.30;4.00;;;;;;;34.50;38.34;99686.91;5092483;28;20731;-70
2023/07/15 05:25:21;;;;;;;5.78;5.30;;;;;;;35.02;36.55;99692.41;5092975;28;20191;-69
2023/07/15 05:27:50;;;;;;;11.93;6.63;;;;;;;34.47;37.36;99682.09;5092734;28;20196;-70
2023/07/15 05:30:17;;;;;;;5.35;4.70;;;;;;;33.83;38.95;99675.72;5092387;28;20572;-70
2023/07/15 05:32:43;;;;;;;7.38;5.50;;;;;;;33.33;40.50;99679.88;5092926;28;20187;-70
2023/07/15 05:35:10;;;;;;;5.18;4.35;;;;;;;33.16;40.95;99683.59;5092589;28;20235;-69
2023/07/15 05:37:37;;;;;;;7.90;4.53;;;;;;;33.04;41.20;99678.06;5092073;28;20626;-70
2023/07/15 05:40:09;;;;;;;6.68;4.55;;;;;;;32.93;41.76;99676.84;5092470;28;20732;-69
2023/07/15 05:42:37;;;;;;;7.38;4.88;;;;;;;33.25;41.01;99685.13;5092262;28;20180;-69
2023/07/15 05:45:06;;;;;;;7.23;3.90;;;;;;;34.18;38.91;99695.34;5092542;28;20203;-70
2023/07/15 05:47:34;;;;;;;11.32;4.95;;;;;;;34.40;38.22;99694.88;5092031;28;20293;-70
2023/07/15 05:50:00;;;;;;;7.25;4.13;;;;;;;34.80;37.35;99701.22;5092268;28;20202;-69
2023/07/15 05:52:27;;;;;;;6.07;3.38;;;;;;;35.29;36.09;99702.66;5091827;28;20563;-69
2023/07/15 05:54:54;;;;;;;4.93;4.43;;;;;;;35.26;36.39;99703.31;5092302;28;20218;-69
2023/07/15 05:57:20;;;;;;;4.05;3.67;;;;;;;35.74;35.37;99691.97;5091859;28;20663;-70
2023/07/15 05:59:47;;;;;;;4.07;3.78;;;;;;;35.96;35.24;99694.94;5091792;28;20655;-69
2023/07/15 06:02:15;;;;;;;8.38;4.18;;;;;;;35.53;35.64;99697.78;5091910;28;20670;-69
2023/07/15 06:04:42;;;;;;;5.43;4.65;;;;;;;35.20;36.40;99694.50;5092055;28;20195;-69
2023/07/15 06:07:09;;;;;;;4.65;4.25;;;;;;;35.10;36.71;99699.72;5091797;28;20191;-70
2023/07/15 06:09:35;;;;;;;6.22;4.07;;;;;;;34.73;37.41;99689.94;5091656;28;20222;-69
2023/07/15 06:12:02;;;;;;;4.05;3.75;;;;;;;34.52;38.01;99689.31;5091643;28;20662;-69
2023/07/15 06:14:29;;;;;;;6.45;3.78;;;;;;;34.60;38.08;99691.94;5091990;28;20226;-69
2023/07/15 06:16:56;;;;;;;4.88;3.78;;;;;;;35.12;37.22;99698.22;5091835;28;20195;-69
2023/07/15 06:19:24;;;;;;;8.77;4.13;;;;;;;35.00;36.47;99691.94;5091446;28;20662;-69
2023/07/15 06:21:51;;;;;;;6.18;4.43;;;;;;;34.59;37.09;99700.59;5091913;28;20195;-69
2023/07/15 06:24:18;;;;;;;5.03;3.95;;;;;;;34.28;38.37;99690.16;5091562;28;20681;-70
2023/07/15 06:26:45;;;;;;;4.57;3.90;;;;;;;33.83;39.11;99678.47;5091501;28;20743;-69
2023/07/15 06:29:11;;;;;;;12.48;11.23;;;;;;;33.59;40.10;99677.63;5091105;28;20896;-70
2023/07/15 06:31:38;;;;;;;4.93;3.88;;;;;;;33.72;39.88;99679.25;5091578;28;20191;-70
2023/07/15 06:34:05;;;;;;;4.40;4.00;;;;;;;34.13;39.54;99687.31;5091628;28;20230;-70
2023/07/15 06:36:33;;;;;;;3.90;3.55;;;;;;;34.61;38.22;99677.00;5091390;28;20210;-69
2023/07/15 06:38:59;;;;;;;7.15;3.90;;;;;;;35.00;37.55;99681.72;5091326;28;20659;-69
2023/07/15 06:41:26;;;;;;;4.43;3.58;;;;;;;34.98;37.62;99680.47;5091530;28;20629;-69
2023/07/15 06:43:53;;;;;;;4.68;4.28;;;;;;;35.01;37.96;99683.31;5091470;28;20187;-69
2023/07/15 06:46:19;;;;;;;4.60;4.20;;;;;;;34.65;38.48;99685.38;5091633;28;20191;-69
2023/07/15 06:48:46;;;;;;;5.00;4.10;;;;;;;34.41;38.72;99686.25;5091482;28;20187;-69
2023/07/15 06:51:14;;;;;;;6.25;4.22;;;;;;;34.12;38.68;99677.44;5091216;28;20249;-70
2023/07/15 06:53:42;;;;;;;6.47;4.40;;;;;;;34.17;39.00;99685.47;5091186;28;20252;-69
2023/07/15 06:56:09;;;;;;;4.93;4.13;;;;;;;34.18;39.60;99678.78;5091502;28;20237;-70
2023/07/15 06:58:36;;;;;;;9.60;4.63;;;;;;;34.43;38.66;99685.91;5091090;28;20575;-69
2023/07/15 07:01:02;;;;;;;7.55;4.20;;;;;;;34.43;39.01;99686.72;5091742;28;20195;-69
2023/07/15 07:03:29;;;;;;;5.95;4.75;;;;;;;34.23;38.61;99687.63;5090933;28;20218;-69
2023/07/15 07:05:56;;;;;;;4.97;3.97;;;;;;;34.28;38.80;99686.56;5091284;28;20199;-70
2023/07/15 07:08:23;;;;;;;10.27;4.70;;;;;;;34.43;38.79;99691.41;5091024;28;20187;-70
2023/07/15 07:10:52;;;;;;;4.47;4.07;;;;;;;34.82;37.05;99698.94;5091240;28;20198;-70
2023/07/15 07:13:19;;;;;;;4.97;4.32;;;;;;;34.94;37.15;99694.16;5091225;28;20195;-71
2023/07/15 07:15:46;;;;;;;5.38;4.20;;;;;;;34.71;37.78;99697.78;5091552;28;20280;-70
2023/07/15 07:18:13;;;;;;;5.25;4.60;;;;;;;34.69;37.76;99683.50;5090826;28;20191;-70
2023/07/15 07:20:40;;;;;;;6.95;4.82;;;;;;;34.94;37.45;99701.66;5091511;28;20191;-71
2023/07/15 07:23:07;;;;;;;6.95;4.75;;;;;;;35.27;37.09;99694.66;5094887;28;20188;-70
2023/07/15 07:25:33;;;;;;;5.65;5.00;;;;;;;35.67;35.31;99697.31;5094847;28;20199;-71
2023/07/15 07:28:01;;;;;;;11.45;4.57;;;;;;;36.18;35.16;99690.72;5094452;28;20195;-70
2023/07/15 07:30:28;;;;;;;6.40;4.25;;;;;;;36.41;34.42;99689.69;5094690;28;20196;-70
2023/07/15 07:32:55;;;;;;;5.30;4.85;;;;;;;36.12;34.91;99683.84;5094898;28;20252;-70
2023/07/15 07:35:21;;;;;;;7.65;5.28;;;;;;;36.02;35.56;99685.22;5094616;28;20291;-70
2023/07/15 07:37:49;;;;;;;6.32;5.28;;;;;;;36.10;35.49;99677.88;5094321;28;20626;-70
2023/07/15 07:40:16;;;;;;;4.93;4.20;;;;;;;36.37;34.71;99683.28;5094318;28;20252;-71
2023/07/15 07:42:43;;;;;;;6.80;5.28;;;;;;;36.98;34.48;99681.41;5094745;28;20252;-70
2023/07/15 07:45:15;;;;;;;5.70;4.78;;;;;;;37.30;33.53;99682.03;5094241;28;20217;-70
2023/07/15 07:47:42;;;;;;;5.47;4.72;;;;;;;37.19;32.97;99686.59;5094189;28;20632;-70
2023/07/15 07:50:09;;;;;;;5.45;4.72;;;;;;;37.56;32.56;99684.09;5094113;28;20187;-71
2023/07/15 07:52:36;;;;;;;7.97;5.63;;;;;;;37.70;32.41;99681.59;5094356;28;20195;-71
2023/07/15 07:55:03;;;;;;;11.52;6.35;;;;;;;37.67;31.34;99683.13;5093857;28;20248;-70
2023/07/15 07:57:30;;;;;;;8.88;6.57;;;;;;;38.06;30.95;99675.47;5093968;28;20195;-70
2023/07/15 07:59:57;;;;;;;5.90;5.50;;;;;;;38.37;31.06;99675.91;5094398;28;20245;-70
2023/07/15 08:02:25;;;;;;;10.05;6.20;;;;;;;38.28;31.01;99680.13;5093920;28;20245;-70
2023/07/15 08:04:52;;;;;;;10.35;6.28;;;;;;;38.52;30.92;99672.19;5093601;28;20552;-70
2023/07/15 08:07:19;;;;;;;5.82;5.28;;;;;;;38.67;30.69;99684.28;5094028;28;20198;-70
2023/07/15 08:09:45;;;;;;;6.95;5.45;;;;;;;38.64;31.10;99673.91;5094004;28;20200;-70
2023/07/15 08:12:12;;;;;;;6.43;6.03;;;;;;;38.63;31.43;99675.91;5093911;28;20225;-70
2023/07/15 08:14:39;;;;;;;7.15;6.45;;;;;;;38.42;31.77;99672.81;5093749;28;20252;-70
2023/07/15 08:17:05;;;;;;;6.85;6.28;;;;;;;38.23;31.72;99670.16;5093501;28;20219;-71
2023/07/15 08:19:33;;;;;;;7.28;6.50;;;;;;;38.38;31.38;99677.53;5093228;28;20249;-72
2023/07/15 08:22:00;;;;;;;6.43;5.90;;;;;;;38.32;31.99;99683.75;5093749;28;20196;-71
2023/07/15 08:24:27;;;;;;;7.20;6.40;;;;;;;38.28;31.77;99672.63;5093777;28;20249;-70
2023/07/15 08:26:53;;;;;;;11.82;6.82;;;;;;;38.27;31.85;99665.47;5093546;28;20192;-70
2023/07/15 08:29:20;;;;;;;6.95;6.35;;;;;;;38.12;32.28;99663.66;5093448;28;20743;-71
2023/07/15 08:31:47;;;;;;;7.30;6.63;;;;;;;38.09;32.16;99658.84;5093337;28;20203;-70
2023/07/15 08:34:14;;;;;;;7.90;7.00;;;;;;;38.01;32.79;99664.66;5093611;28;20227;-70
2023/07/15 08:36:42;;;;;;;7.13;6.45;;;;;;;37.93;32.88;99668.50;5092936;28;20266;-70
2023/07/15 08:39:08;;;;;;;8.70;7.30;;;;;;;38.08;32.61;99656.47;5093315;28;20267;-70
2023/07/15 08:41:35;;;;;;;8.75;7.20;;;;;;;38.33;32.51;99658.41;5092702;28;20712;-70
2023/07/15 08:44:02;;;;;;;11.93;7.53;;;;;;;38.03;33.22;99649.25;5093065;28;20746;-70
2023/07/15 08:46:30;;;;;;;9.85;6.90;;;;;;;38.33;32.32;99658.41;5093358;28;20713;-70
2023/07/15 08:48:58;;;;;;;9.85;6.82;;;;;;;38.44;32.26;99648.25;5092764;28;20252;-70
2023/07/15 08:51:28;;;;;;;11.32;8.20;;;;;;;38.39;33.04;99650.56;5092775;28;20248;-70
2023/07/15 08:53:57;;;;;;;10.70;8.45;;;;;;;38.10;33.76;99643.81;5093108;28;20245;-70
2023/07/15 08:56:25;;;;;;;8.90;7.78;;;;;;;38.01;33.90;99640.50;5092822;28;20779;-70
2023/07/15 08:58:53;;;;;;;10.15;7.97;;;;;;;38.05;34.16;99635.78;5093070;28;20191;-70
2023/07/15 09:01:20;;;;;;;10.88;7.60;;;;;;;38.08;33.73;99643.38;5092926;28;20194;-70
2023/07/15 09:03:47;;;;;;;8.70;6.93;;;;;;;38.05;33.36;99641.34;5093034;28;20236;-71
2023/07/15 09:06:15;;;;;;;8.02;7.28;;;;;;;38.33;32.99;99632.63;5092666;28;20252;-71
2023/07/15 09:08:42;;;;;;;6.75;6.10;;;;;;;38.54;32.50;99639.25;5093173;28;20425;-70
2023/07/15 09:11:12;;;;;;;6.72;6.03;;;;;;;38.69;32.19;99640.25;5092670;28;20278;-70
2023/07/15 09:13:40;;;;;;;7.13;5.78;;;;;;;38.67;32.17;99642.63;5092811;28;20256;-70
2023/07/15 09:16:06;;;;;;;6.97;5.70;;;;;;;38.88;32.13;99651.19;5092468;28;20226;-71
2023/07/15 09:18:39;;;;;;;7.35;5.40;;;;;;;39.10;31.53;99636.34;5092932;28;20187;-71
2023/07/15 09:21:10;;;;;;;6.90;6.03;;;;;;;38.91;31.77;99642.13;5092723;28;20183;-71
2023/07/15 09:23:40;;;;;;;9.95;5.63;;;;;;;38.96;31.79;99634.25;5093074;28;20198;-71
2023/07/15 09:26:06;;;;;;;11.43;6.53;;;;;;;38.74;32.17;99634.38;5092603;28;20199;-70
2023/07/15 09:28:35;;;;;;;6.75;5.53;;;;;;;38.83;32.17;99627.34;5092615;28;20248;-71
2023/07/15 09:31:01;;;;;;;7.82;6.10;;;;;;;38.65;32.71;99625.53;5092472;28;20195;-71
2023/07/15 09:33:30;;;;;;;6.75;5.95;;;;;;;38.82;32.28;99624.94;5092521;28;20187;-70
2023/07/15 09:35:57;;;;;;;10.80;5.45;;;;;;;39.09;31.97;99626.44;5091850;28;20238;-70
2023/07/15 09:38:24;;;;;;;6.75;5.93;;;;;;;39.00;31.57;99632.31;5092525;28;20195;-71
2023/07/15 09:40:51;;;;;;;8.07;5.43;;;;;;;39.02;32.11;99632.72;5091749;28;20574;-71
2023/07/15 09:43:17;;;;;;;8.27;5.95;;;;;;;38.94;31.97;99622.72;5092096;28;20200;-71
2023/07/15 09:45:46;;;;;;;5.90;5.40;;;;;;;38.93;32.28;99610.00;5092305;28;20199;-71
2023/07/15 09:48:16;;;;;;;7.15;5.30;;;;;;;39.15;31.84;99620.13;5092099;28;20209;-71
2023/07/15 09:50:43;;;;;;;7.47;5.90;;;;;;;39.18;31.71;99618.56;5092157;28;20195;-70
2023/07/15 09:53:10;;;;;;;7.05;6.40;;;;;;;39.03;31.78;99614.06;5092341;28;20187;-71
2023/07/15 09:55:38;;;;;;;8.73;5.47;;;;;;;39.11;31.57;99613.75;5091634;28;20195;-71
2023/07/15 09:58:19;;;;;;;6.97;6.38;;;;;;;39.15;31.96;99603.47;5092104;28;20623;-71
2023/07/15 10:00:49;;;;;;;7.13;5.75;;;;;;;39.19;31.16;99607.06;5091710;28;20187;-70
2023/07/15 10:03:32;;;;;;;6.88;5.93;;;;;;;39.35;30.99;99604.09;5092064;28;20199;-71
2023/07/15 10:06:00;;;;;;;8.50;6.93;;;;;;;39.16;31.52;99601.50;5091720;28;20183;-70
2023/07/15 10:08:29;;;;;;;6.85;6.10;;;;;;;38.84;31.76;99594.78;5091598;28;20256;-71
2023/07/15 10:10:55;;;;;;;6.97;6.35;;;;;;;38.68;32.09;99591.44;5091544;28;20621;-71
2023/07/15 10:13:22;;;;;;;7.22;6.75;;;;;;;38.81;31.49;99579.66;5091439;28;20242;-70
2023/07/15 10:15:51;;;;;;;7.72;7.05;;;;;;;38.84;32.05;99578.09;5091220;28;20325;-71
2023/07/15 10:18:19;;;;;;;7.72;6.82;;;;;;;39.00;31.71;99571.16;5091589;28;20191;-70
2023/07/15 10:20:55;;;;;;;7.15;6.53;;;;;;;38.89;31.61;99580.53;5091542;28;20198;-70
2023/07/15 10:23:25;;;;;;;7.63;6.57;;;;;;;38.67;32.09;99573.16;5091575;28;20613;-70
2023/07/15 10:25:58;;;;;;;10.80;6.43;;;;;;;38.85;32.00;99583.28;5091815;28;20184;-71
2023/07/15 10:28:25;;;;;;;7.43;6.72;;;;;;;39.02;30.96;99574.34;5091224;28;20643;-70
2023/07/15 10:31:12;;;;;;;7.07;6.40;;;;;;;39.00;30.95;99571.16;5091203;28;20198;-70
2023/07/15 10:33:54;;;;;;;7.15;6.57;;;;;;;38.97;31.23;99573.91;5090424;28;20198;-71
2023/07/15 10:36:38;;;;;;;7.93;6.60;;;;;;;39.12;30.73;99557.00;5091668;28;20211;-71
2023/07/15 10:39:13;;;;;;;9.18;6.30;;;;;;;38.85;31.23;99558.28;5091479;28;20202;-70
2023/07/15 10:41:45;;;;;;;7.50;6.70;;;;;;;38.78;31.17;99562.97;5090849;28;20194;-71
2023/07/15 10:44:19;;;;;;;7.15;5.90;;;;;;;38.64;31.39;99554.47;5091088;28;20195;-70
2023/07/15 10:46:48;;;;;;;7.50;6.78;;;;;;;38.67;31.61;99556.50;5091308;28;20194;-71
2023/07/15 10:49:15;;;;;;;7.05;6.45;;;;;;;38.72;31.09;99543.06;5090841;28;20198;-71
2023/07/15 10:51:43;;;;;;;6.75;6.13;;;;;;;38.84;30.88;99540.00;5091404;28;20199;-71
2023/07/15 10:54:09;;;;;;;9.93;5.93;;;;;;;38.94;30.82;99533.78;5090836;28;20191;-71
2023/07/15 10:56:36;;;;;;;8.63;7.13;;;;;;;38.77;31.52;99534.38;5093383;28;20218;-71
2023/07/15 10:59:03;;;;;;;10.60;7.35;;;;;;;38.70;31.54;99537.09;5095227;28;20195;-71
2023/07/15 11:01:29;;;;;;;12.32;7.07;;;;;;;38.49;31.54;99539.63;5095066;28;20195;-72
2023/07/15 11:04:05;;;;;;;8.50;7.50;;;;;;;38.41;31.83;99528.81;5094991;28;20191;-71
2023/07/15 11:06:32;;;;;;;11.13;6.78;;;;;;;38.67;30.71;99539.84;5095288;28;20275;-71
2023/07/15 11:08:59;;;;;;;7.95;6.47;;;;;;;38.74;30.46;99535.13;5094939;28;20724;-70
2023/07/15 11:11:26;;;;;;;10.35;6.20;;;;;;;38.81;30.33;99528.84;5095130;28;20195;-71
2023/07/15 11:13:52;;;;;;;7.10;6.40;;;;;;;38.95;30.38;99535.38;5095454;28;20187;-70
2023/07/15 11:16:19;;;;;;;12.05;6.25;;;;;;;38.94;30.03;99528.22;5095311;28;20195;-71
2023/07/15 11:18:45;;;;;;;9.77;6.28;;;;;;;38.98;29.97;99522.72;5094859;28;20248;-71
2023/07/15 11:21:14;;;;;;;8.35;5.43;;;;;;;39.11;29.89;99519.22;5094919;28;20625;-72
2023/07/15 11:23:44;;;;;;;7.68;5.80;;;;;;;39.00;30.28;99521.16;5094910;28;20274;-71
2023/07/15 11:26:12;;;;;;;8.82;6.28;;;;;;;38.97;30.21;99518.31;5094970;28;20180;-70
2023/07/15 11:28:49;;;;;;;6.50;5.80;;;;;;;38.93;30.37;99515.50;5094797;28;20198;-71
2023/07/15 11:31:15;;;;;;;6.85;6.15;;;;;;;38.98;30.53;99515.16;5094735;28;20197;-70
2023/07/15 11:33:42;;;;;;;7.22;6.18;;;;;;;38.65;31.05;99511.66;5094469;28;20196;-70